sensor_id;sensor_type;location;lat;lon;timestamp;pressure;altitude;pressure_sealevel;temperature;humidity
12759;BME280;20944;47.048;15.390;2022-08-19T00:01:52;96846.09;;;20.83;76.55
12759;BME280;20944;47.048;15.390;2022-08-19T00:04:23;96898.56;;;21.15;77.06
12759;BME280;20944;47.048;15.390;2022-08-19T00:06:52;96904.88;;;21.02;77.29
12759;BME280;20944;47.048;15.390;2022-08-19T00:09:22;96910.22;;;21.02;77.88
12759;BME280;20944;47.048;15.390;2022-08-19T00:11:52;96916.16;;;21.06;78.14
12759;BME280;20944;47.048;15.390;2022-08-19T00:14:24;96916.25;;;21.05;78.54
12759;BME280;20944;47.048;15.390;2022-08-19T00:16:54;96905.38;;;20.96;78.69
12759;BME280;20944;47.048;15.390;2022-08-19T00:19:23;96931.66;;;21.01;78.66
12759;BME280;20944;47.048;15.390;2022-08-19T00:21:51;96926.47;;;20.99;78.10
12759;BME280;20944;47.048;15.390;2022-08-19T00:24:20;96886.91;;;20.72;78.36
12759;BME280;20944;47.048;15.390;2022-08-19T00:26:48;96926.81;;;20.95;78.40
12759;BME280;20944;47.048;15.390;2022-08-19T00:29:19;96929.63;;;20.82;79.08
12759;BME280;20944;47.048;15.390;2022-08-19T00:31:49;96936.63;;;20.94;79.01
12759;BME280;20944;47.048;15.390;2022-08-19T00:34:20;96922.47;;;20.94;78.14
12759;BME280;20944;47.048;15.390;2022-08-19T00:36:49;96906.03;;;20.78;79.56
12759;BME280;20944;47.048;15.390;2022-08-19T00:39:17;96925.50;;;20.89;80.54
12759;BME280;20944;47.048;15.390;2022-08-19T00:41:47;96934.59;;;20.87;80.71
12759;BME280;20944;47.048;15.390;2022-08-19T00:44:18;96941.25;;;20.81;80.48
12759;BME280;20944;47.048;15.390;2022-08-19T00:46:55;96928.16;;;20.67;80.67
12759;BME280;20944;47.048;15.390;2022-08-19T00:49:28;96949.13;;;20.71;80.66
12759;BME280;20944;47.048;15.390;2022-08-19T00:52:05;96938.25;;;20.63;81.40
12759;BME280;20944;47.048;15.390;2022-08-19T00:54:36;96942.59;;;20.76;80.89
12759;BME280;20944;47.048;15.390;2022-08-19T00:57:09;96952.38;;;20.86;80.21
12759;BME280;20944;47.048;15.390;2022-08-19T00:59:40;96955.16;;;20.85;80.39
12759;BME280;20944;47.048;15.390;2022-08-19T01:02:30;96947.28;;;20.72;80.03
12759;BME280;20944;47.048;15.390;2022-08-19T01:05:02;96977.81;;;20.68;81.41
12759;BME280;20944;47.048;15.390;2022-08-19T01:07:31;96969.34;;;20.52;81.77
12759;BME280;20944;47.048;15.390;2022-08-19T01:10:06;96993.66;;;20.58;81.63
12759;BME280;20944;47.048;15.390;2022-08-19T01:12:35;96993.66;;;20.58;81.53
12759;BME280;20944;47.048;15.390;2022-08-19T01:15:06;96995.69;;;20.55;80.64
12759;BME280;20944;47.048;15.390;2022-08-19T01:17:38;96992.19;;;20.54;79.78
12759;BME280;20944;47.048;15.390;2022-08-19T01:20:10;96962.28;;;20.39;79.57
12759;BME280;20944;47.048;15.390;2022-08-19T01:22:44;96995.25;;;20.50;78.83
12759;BME280;20944;47.048;15.390;2022-08-19T01:25:13;96981.94;;;20.50;78.81
12759;BME280;20944;47.048;15.390;2022-08-19T01:27:44;96973.81;;;20.51;79.31
12759;BME280;20944;47.048;15.390;2022-08-19T01:30:18;96962.06;;;20.54;79.90
12759;BME280;20944;47.048;15.390;2022-08-19T01:32:49;96963.41;;;20.48;80.30
12759;BME280;20944;47.048;15.390;2022-08-19T01:35:17;96968.38;;;20.64;80.37
12759;BME280;20944;47.048;15.390;2022-08-19T01:37:49;96924.75;;;20.42;80.90
12759;BME280;20944;47.048;15.390;2022-08-19T01:40:20;96960.03;;;20.57;81.38
12759;BME280;20944;47.048;15.390;2022-08-19T01:42:49;96919.91;;;20.36;81.54
12759;BME280;20944;47.048;15.390;2022-08-19T01:45:19;96930.13;;;20.54;81.54
12759;BME280;20944;47.048;15.390;2022-08-19T01:47:48;96884.38;;;20.37;81.55
12759;BME280;20944;47.048;15.390;2022-08-19T01:50:28;96892.38;;;20.48;81.36
12759;BME280;20944;47.048;15.390;2022-08-19T01:52:58;96881.00;;;20.46;81.12
12759;BME280;20944;47.048;15.390;2022-08-19T01:55:33;96876.84;;;20.42;82.06
12759;BME280;20944;47.048;15.390;2022-08-19T01:58:11;96866.47;;;20.39;81.19
12759;BME280;20944;47.048;15.390;2022-08-19T02:00:41;96859.22;;;20.19;81.40
12759;BME280;20944;47.048;15.390;2022-08-19T02:03:09;96887.53;;;20.31;82.00
12759;BME280;20944;47.048;15.390;2022-08-19T02:05:39;96858.13;;;20.21;81.29
12759;BME280;20944;47.048;15.390;2022-08-19T02:08:10;96892.59;;;20.34;81.73
12759;BME280;20944;47.048;15.390;2022-08-19T02:10:40;96898.78;;;20.46;81.87
12759;BME280;20944;47.048;15.390;2022-08-19T02:13:10;96886.31;;;20.46;81.67
12759;BME280;20944;47.048;15.390;2022-08-19T02:15:39;96829.47;;;20.03;82.35
12759;BME280;20944;47.048;15.390;2022-08-19T02:18:07;96880.50;;;20.30;82.66
12759;BME280;20944;47.048;15.390;2022-08-19T02:20:37;96849.06;;;20.13;82.63
12759;BME280;20944;47.048;15.390;2022-08-19T02:23:06;96874.31;;;20.30;82.20
12759;BME280;20944;47.048;15.390;2022-08-19T02:25:43;96857.63;;;20.28;82.57
12759;BME280;20944;47.048;15.390;2022-08-19T02:28:12;96850.50;;;20.28;82.70
12759;BME280;20944;47.048;15.390;2022-08-19T02:30:45;96852.09;;;20.31;82.34
12759;BME280;20944;47.048;15.390;2022-08-19T02:33:14;96842.41;;;20.18;82.80
12759;BME280;20944;47.048;15.390;2022-08-19T02:35:42;96873.34;;;20.42;82.48
12759;BME280;20944;47.048;15.390;2022-08-19T02:38:11;96863.81;;;20.28;82.55
12759;BME280;20944;47.048;15.390;2022-08-19T02:40:57;96735.50;;;19.46;82.52
12759;BME280;20944;47.048;15.390;2022-08-19T02:43:26;96869.75;;;20.32;81.70
12759;BME280;20944;47.048;15.390;2022-08-19T02:45:59;96880.75;;;20.38;81.51
12759;BME280;20944;47.048;15.390;2022-08-19T02:48:28;96846.50;;;20.34;81.71
12759;BME280;20944;47.048;15.390;2022-08-19T02:50:56;96821.50;;;20.25;82.25
12759;BME280;20944;47.048;15.390;2022-08-19T02:53:27;96825.59;;;20.18;82.66
12759;BME280;20944;47.048;15.390;2022-08-19T02:55:57;96851.69;;;20.35;82.48
12759;BME280;20944;47.048;15.390;2022-08-19T02:58:26;96868.66;;;20.45;82.21
12759;BME280;20944;47.048;15.390;2022-08-19T03:00:55;96889.84;;;20.58;81.70
12759;BME280;20944;47.048;15.390;2022-08-19T03:03:24;96876.66;;;20.45;82.05
12759;BME280;20944;47.048;15.390;2022-08-19T03:06:03;96883.91;;;20.43;82.75
12759;BME280;20944;47.048;15.390;2022-08-19T03:08:31;96883.28;;;20.29;82.79
12759;BME280;20944;47.048;15.390;2022-08-19T03:11:02;96885.94;;;20.40;83.08
12759;BME280;20944;47.048;15.390;2022-08-19T03:13:31;96884.84;;;20.42;83.09
12759;BME280;20944;47.048;15.390;2022-08-19T03:15:59;96891.66;;;20.46;83.08
12759;BME280;20944;47.048;15.390;2022-08-19T03:18:27;96883.44;;;20.50;82.94
12759;BME280;20944;47.048;15.390;2022-08-19T03:20:56;96865.84;;;20.36;83.56
12759;BME280;20944;47.048;15.390;2022-08-19T03:23:24;96885.72;;;20.54;83.23
12759;BME280;20944;47.048;15.390;2022-08-19T03:25:53;96880.25;;;20.44;83.01
12759;BME280;20944;47.048;15.390;2022-08-19T03:28:43;96896.84;;;20.48;82.81
12759;BME280;20944;47.048;15.390;2022-08-19T03:31:20;96818.81;;;20.03;82.83
12759;BME280;20944;47.048;15.390;2022-08-19T03:34:10;96886.09;;;20.50;82.56
12759;BME280;20944;47.048;15.390;2022-08-19T03:36:39;96895.88;;;20.38;83.21
12759;BME280;20944;47.048;15.390;2022-08-19T03:39:09;96931.06;;;20.41;83.80
12759;BME280;20944;47.048;15.390;2022-08-19T03:41:39;96951.50;;;20.41;84.38
12759;BME280;20944;47.048;15.390;2022-08-19T03:44:13;96975.66;;;20.62;83.17
12759;BME280;20944;47.048;15.390;2022-08-19T03:46:46;96963.97;;;20.40;84.08
12759;BME280;20944;47.048;15.390;2022-08-19T03:49:14;97000.25;;;20.30;85.04
12759;BME280;20944;47.048;15.390;2022-08-19T03:51:45;97014.25;;;20.21;86.03
12759;BME280;20944;47.048;15.390;2022-08-19T03:54:16;97027.22;;;20.26;85.12
12759;BME280;20944;47.048;15.390;2022-08-19T03:56:47;97056.53;;;20.37;82.29
12759;BME280;20944;47.048;15.390;2022-08-19T03:59:20;97009.41;;;20.15;79.86
12759;BME280;20944;47.048;15.390;2022-08-19T04:01:52;97024.97;;;20.43;79.01
12759;BME280;20944;47.048;15.390;2022-08-19T04:04:20;96998.38;;;20.55;78.96
12759;BME280;20944;47.048;15.390;2022-08-19T04:06:49;97002.47;;;20.47;79.97
12759;BME280;20944;47.048;15.390;2022-08-19T04:09:19;97009.75;;;20.57;79.32
12759;BME280;20944;47.048;15.390;2022-08-19T04:11:49;97011.09;;;20.62;79.08
12759;BME280;20944;47.048;15.390;2022-08-19T04:14:21;97007.56;;;20.73;78.69
12759;BME280;20944;47.048;15.390;2022-08-19T04:16:51;97003.94;;;20.85;78.65
12759;BME280;20944;47.048;15.390;2022-08-19T04:19:20;96970.31;;;20.62;79.05
12759;BME280;20944;47.048;15.390;2022-08-19T04:21:50;96985.69;;;20.81;78.96
12759;BME280;20944;47.048;15.390;2022-08-19T04:24:20;97008.28;;;21.09;78.72
12759;BME280;20944;47.048;15.390;2022-08-19T04:26:49;97001.25;;;21.19;78.68
12759;BME280;20944;47.048;15.390;2022-08-19T04:29:21;96998.59;;;21.30;78.41
12759;BME280;20944;47.048;15.390;2022-08-19T04:31:53;96914.56;;;20.92;77.62
12759;BME280;20944;47.048;15.390;2022-08-19T04:34:24;97010.16;;;21.63;76.78
12759;BME280;20944;47.048;15.390;2022-08-19T04:36:53;96983.69;;;21.71;76.39
12759;BME280;20944;47.048;15.390;2022-08-19T04:39:24;96972.50;;;21.77;76.18
12759;BME280;20944;47.048;15.390;2022-08-19T04:42:14;96948.69;;;21.85;75.65
12759;BME280;20944;47.048;15.390;2022-08-19T04:45:02;96965.41;;;21.87;75.76
12759;BME280;20944;47.048;15.390;2022-08-19T04:47:35;96964.47;;;21.88;75.88
12759;BME280;20944;47.048;15.390;2022-08-19T04:50:14;96967.50;;;21.84;76.05
12759;BME280;20944;47.048;15.390;2022-08-19T04:52:42;96955.16;;;21.83;75.97
12759;BME280;20944;47.048;15.390;2022-08-19T04:55:11;96947.72;;;21.86;75.36
12759;BME280;20944;47.048;15.390;2022-08-19T04:57:40;96946.81;;;21.97;74.82
12759;BME280;20944;47.048;15.390;2022-08-19T05:00:11;96958.47;;;21.96;74.94
12759;BME280;20944;47.048;15.390;2022-08-19T05:02:39;96948.19;;;21.91;75.04
12759;BME280;20944;47.048;15.390;2022-08-19T05:05:08;96963.53;;;21.99;74.77
12759;BME280;20944;47.048;15.390;2022-08-19T05:07:36;96944.28;;;21.95;74.38
12759;BME280;20944;47.048;15.390;2022-08-19T05:10:07;96961.19;;;22.05;74.55
12759;BME280;20944;47.048;15.390;2022-08-19T05:12:36;96968.47;;;22.03;74.30
12759;BME280;20944;47.048;15.390;2022-08-19T05:15:06;96983.50;;;22.04;74.01
12759;BME280;20944;47.048;15.390;2022-08-19T05:17:37;96992.72;;;22.12;73.15
12759;BME280;20944;47.048;15.390;2022-08-19T05:20:27;96993.19;;;22.17;72.34
12759;BME280;20944;47.048;15.390;2022-08-19T05:23:12;97004.47;;;22.20;72.25
12759;BME280;20944;47.048;15.390;2022-08-19T05:25:48;96987.00;;;22.16;70.60
12759;BME280;20944;47.048;15.390;2022-08-19T05:28:17;97011.94;;;22.26;71.12
12759;BME280;20944;47.048;15.390;2022-08-19T05:30:45;97001.19;;;22.17;71.54
12759;BME280;20944;47.048;15.390;2022-08-19T05:33:16;96991.78;;;22.13;71.23
12759;BME280;20944;47.048;15.390;2022-08-19T05:35:44;96999.97;;;22.21;71.46
12759;BME280;20944;47.048;15.390;2022-08-19T05:38:13;96999.13;;;22.20;70.57
12759;BME280;20944;47.048;15.390;2022-08-19T05:40:41;96995.63;;;22.08;70.70
12759;BME280;20944;47.048;15.390;2022-08-19T05:43:14;97010.66;;;22.21;69.93
12759;BME280;20944;47.048;15.390;2022-08-19T05:45:43;96995.47;;;22.21;70.40
12759;BME280;20944;47.048;15.390;2022-08-19T05:48:13;97003.03;;;22.16;71.23
12759;BME280;20944;47.048;15.390;2022-08-19T05:50:43;97003.88;;;22.17;71.26
12759;BME280;20944;47.048;15.390;2022-08-19T05:53:12;97018.50;;;22.22;71.28
12759;BME280;20944;47.048;15.390;2022-08-19T05:55:43;97023.06;;;22.11;70.74
12759;BME280;20944;47.048;15.390;2022-08-19T05:58:11;97027.31;;;22.13;70.46
12759;BME280;20944;47.048;15.390;2022-08-19T06:00:42;97024.16;;;22.08;71.01
12759;BME280;20944;47.048;15.390;2022-08-19T06:03:11;97024.16;;;22.08;70.77
12759;BME280;20944;47.048;15.390;2022-08-19T06:05:40;97033.34;;;22.15;70.48
12759;BME280;20944;47.048;15.390;2022-08-19T06:08:19;97000.03;;;21.98;70.36
12759;BME280;20944;47.048;15.390;2022-08-19T06:11:16;97025.75;;;22.31;69.98
12759;BME280;20944;47.048;15.390;2022-08-19T06:13:46;97030.16;;;22.42;69.38
12759;BME280;20944;47.048;15.390;2022-08-19T06:16:26;96994.09;;;22.27;68.63
12759;BME280;20944;47.048;15.390;2022-08-19T06:18:56;97018.50;;;22.64;67.36
12759;BME280;20944;47.048;15.390;2022-08-19T06:21:27;97019.97;;;22.78;66.46
12759;BME280;20944;47.048;15.390;2022-08-19T06:23:57;97030.72;;;22.87;66.34
12759;BME280;20944;47.048;15.390;2022-08-19T06:26:26;97014.88;;;22.96;65.65
12759;BME280;20944;47.048;15.390;2022-08-19T06:28:55;97006.88;;;23.05;64.88
12759;BME280;20944;47.048;15.390;2022-08-19T06:31:26;96992.97;;;23.11;64.44
12759;BME280;20944;47.048;15.390;2022-08-19T06:33:54;97013.03;;;23.36;63.46
12759;BME280;20944;47.048;15.390;2022-08-19T06:36:25;97012.63;;;23.51;62.52
12759;BME280;20944;47.048;15.390;2022-08-19T06:39:00;96998.16;;;23.63;63.20
12759;BME280;20944;47.048;15.390;2022-08-19T06:41:29;96998.34;;;23.71;63.48
12759;BME280;20944;47.048;15.390;2022-08-19T06:43:58;96998.91;;;23.84;63.53
12759;BME280;20944;47.048;15.390;2022-08-19T06:46:27;96985.50;;;23.75;64.18
12759;BME280;20944;47.048;15.390;2022-08-19T06:49:00;97002.56;;;23.74;63.50
12759;BME280;20944;47.048;15.390;2022-08-19T06:51:29;97014.97;;;23.84;63.74
12759;BME280;20944;47.048;15.390;2022-08-19T06:54:05;97000.59;;;23.85;63.76
12759;BME280;20944;47.048;15.390;2022-08-19T06:56:45;96683.31;;;21.70;64.29
12759;BME280;20944;47.048;15.390;2022-08-19T06:59:15;97046.78;;;23.78;62.98
12759;BME280;20944;47.048;15.390;2022-08-19T07:01:46;97055.53;;;23.80;63.51
12759;BME280;20944;47.048;15.390;2022-08-19T07:04:17;96784.38;;;22.03;62.96
12759;BME280;20944;47.048;15.390;2022-08-19T07:06:46;97062.56;;;23.81;63.17
12759;BME280;20944;47.048;15.390;2022-08-19T07:09:22;97044.38;;;23.65;64.08
12759;BME280;20944;47.048;15.390;2022-08-19T07:11:51;97065.34;;;23.69;64.82
12759;BME280;20944;47.048;15.390;2022-08-19T07:14:22;97036.53;;;23.42;65.86
12759;BME280;20944;47.048;15.390;2022-08-19T07:16:53;97068.94;;;23.49;65.99
12759;BME280;20944;47.048;15.390;2022-08-19T07:19:24;97075.66;;;23.34;66.85
12759;BME280;20944;47.048;15.390;2022-08-19T07:21:55;97073.16;;;23.42;66.75
12759;BME280;20944;47.048;15.390;2022-08-19T07:24:25;97067.78;;;23.42;66.92
12759;BME280;20944;47.048;15.390;2022-08-19T07:27:01;97077.50;;;23.33;65.70
12759;BME280;20944;47.048;15.390;2022-08-19T07:29:36;97043.47;;;23.05;63.03
12759;BME280;20944;47.048;15.390;2022-08-19T07:32:05;97032.94;;;23.13;63.43
12759;BME280;20944;47.048;15.390;2022-08-19T07:34:39;97064.38;;;23.30;63.68
12759;BME280;20944;47.048;15.390;2022-08-19T07:37:08;97068.19;;;23.28;64.41
12759;BME280;20944;47.048;15.390;2022-08-19T07:39:38;97071.56;;;23.30;64.85
12759;BME280;20944;47.048;15.390;2022-08-19T07:42:08;97075.16;;;23.19;66.16
12759;BME280;20944;47.048;15.390;2022-08-19T07:44:39;97080.94;;;23.14;66.48
12759;BME280;20944;47.048;15.390;2022-08-19T07:47:16;97064.28;;;23.01;66.86
12759;BME280;20944;47.048;15.390;2022-08-19T07:50:07;97024.47;;;22.56;68.06
12759;BME280;20944;47.048;15.390;2022-08-19T07:52:36;97095.25;;;22.83;68.82
12759;BME280;20944;47.048;15.390;2022-08-19T07:55:10;97095.63;;;22.78;69.68
12759;BME280;20944;47.048;15.390;2022-08-19T07:57:58;97091.16;;;22.58;70.70
12759;BME280;20944;47.048;15.390;2022-08-19T08:00:28;97102.22;;;22.53;72.09
12759;BME280;20944;47.048;15.390;2022-08-19T08:02:57;97098.34;;;22.25;74.31
12759;BME280;20944;47.048;15.390;2022-08-19T08:05:25;97123.19;;;21.94;76.66
12759;BME280;20944;47.048;15.390;2022-08-19T08:08:11;97118.94;;;21.80;78.62
12759;BME280;20944;47.048;15.390;2022-08-19T08:11:12;97092.34;;;21.46;81.17
12759;BME280;20944;47.048;15.390;2022-08-19T08:13:41;97109.91;;;21.49;83.94
12759;BME280;20944;47.048;15.390;2022-08-19T08:16:10;97095.25;;;21.43;85.16
12759;BME280;20944;47.048;15.390;2022-08-19T08:18:40;97074.41;;;21.48;86.86
12759;BME280;20944;47.048;15.390;2022-08-19T08:21:18;97092.47;;;21.56;87.02
12759;BME280;20944;47.048;15.390;2022-08-19T08:23:46;97067.16;;;21.50;87.37
12759;BME280;20944;47.048;15.390;2022-08-19T08:26:20;97039.03;;;21.35;88.30
12759;BME280;20944;47.048;15.390;2022-08-19T08:28:48;97060.25;;;21.37;90.60
12759;BME280;20944;47.048;15.390;2022-08-19T08:31:16;97059.13;;;21.28;90.52
12759;BME280;20944;47.048;15.390;2022-08-19T08:33:46;97039.31;;;21.32;89.79
12759;BME280;20944;47.048;15.390;2022-08-19T08:36:15;97069.56;;;21.42;90.54
12759;BME280;20944;47.048;15.390;2022-08-19T08:38:44;97071.53;;;21.40;91.14
12759;BME280;20944;47.048;15.390;2022-08-19T08:41:18;97044.34;;;21.58;91.51
12759;BME280;20944;47.048;15.390;2022-08-19T08:43:51;97076.91;;;21.72;91.32
12759;BME280;20944;47.048;15.390;2022-08-19T08:46:23;97069.91;;;21.92;89.96
12759;BME280;20944;47.048;15.390;2022-08-19T08:49:02;97055.03;;;22.22;89.32
12759;BME280;20944;47.048;15.390;2022-08-19T08:51:40;97019.63;;;22.41;88.61
12759;BME280;20944;47.048;15.390;2022-08-19T08:54:15;97010.50;;;22.43;86.78
12759;BME280;20944;47.048;15.390;2022-08-19T08:56:47;97023.53;;;22.57;86.00
12759;BME280;20944;47.048;15.390;2022-08-19T08:59:21;97035.41;;;22.74;87.27
12759;BME280;20944;47.048;15.390;2022-08-19T09:01:52;97034.88;;;22.80;88.41
12759;BME280;20944;47.048;15.390;2022-08-19T09:04:21;97069.56;;;22.92;86.87
12759;BME280;20944;47.048;15.390;2022-08-19T09:06:58;97045.50;;;22.92;88.17
12759;BME280;20944;47.048;15.390;2022-08-19T09:10:01;97067.59;;;22.94;87.35
12759;BME280;20944;47.048;15.390;2022-08-19T09:12:38;97069.59;;;22.80;88.01
12759;BME280;20944;47.048;15.390;2022-08-19T09:15:14;97102.50;;;22.81;89.20
12759;BME280;20944;47.048;15.390;2022-08-19T09:17:44;97108.00;;;22.79;85.53
12759;BME280;20944;47.048;15.390;2022-08-19T09:20:20;97095.25;;;22.83;87.72
12759;BME280;20944;47.048;15.390;2022-08-19T09:22:48;97073.66;;;22.75;91.88
12759;BME280;20944;47.048;15.390;2022-08-19T09:25:20;97061.28;;;22.74;95.81
12759;BME280;20944;47.048;15.390;2022-08-19T09:27:54;97037.69;;;22.79;94.73
12759;BME280;20944;47.048;15.390;2022-08-19T09:30:34;97015.66;;;22.86;91.23
12759;BME280;20944;47.048;15.390;2022-08-19T09:33:06;96974.59;;;22.87;89.47
12759;BME280;20944;47.048;15.390;2022-08-19T09:35:35;96989.75;;;23.18;88.91
12759;BME280;20944;47.048;15.390;2022-08-19T09:38:19;97011.19;;;23.37;89.43
12759;BME280;20944;47.048;15.390;2022-08-19T09:40:47;97032.06;;;23.53;89.19
12759;BME280;20944;47.048;15.390;2022-08-19T09:43:16;97063.28;;;23.92;89.22
12759;BME280;20944;47.048;15.390;2022-08-19T09:46:01;97017.50;;;23.95;86.58
12759;BME280;20944;47.048;15.390;2022-08-19T09:48:32;97040.59;;;24.26;83.87
12759;BME280;20944;47.048;15.390;2022-08-19T09:51:05;97044.72;;;24.39;80.90
12759;BME280;20944;47.048;15.390;2022-08-19T09:53:38;97024.41;;;24.46;77.73
12759;BME280;20944;47.048;15.390;2022-08-19T09:56:07;97009.00;;;24.48;79.30
12759;BME280;20944;47.048;15.390;2022-08-19T09:58:36;97078.66;;;24.48;80.50
12759;BME280;20944;47.048;15.390;2022-08-19T10:01:07;97090.38;;;24.38;78.95
12759;BME280;20944;47.048;15.390;2022-08-19T10:03:36;97052.19;;;24.36;79.82
12759;BME280;20944;47.048;15.390;2022-08-19T10:06:05;97060.38;;;24.34;77.93
12759;BME280;20944;47.048;15.390;2022-08-19T10:08:43;97043.97;;;24.18;76.78
12759;BME280;20944;47.048;15.390;2022-08-19T10:11:16;97076.44;;;24.34;76.94
12759;BME280;20944;47.048;15.390;2022-08-19T10:14:02;97059.22;;;24.37;76.33
12759;BME280;20944;47.048;15.390;2022-08-19T10:16:36;97053.88;;;24.37;77.29
12759;BME280;20944;47.048;15.390;2022-08-19T10:19:05;97071.47;;;24.30;77.11
12759;BME280;20944;47.048;15.390;2022-08-19T10:21:34;97067.81;;;24.21;76.50
12759;BME280;20944;47.048;15.390;2022-08-19T10:24:04;97059.50;;;24.14;76.01
12759;BME280;20944;47.048;15.390;2022-08-19T10:26:37;97039.03;;;24.13;75.95
12759;BME280;20944;47.048;15.390;2022-08-19T10:29:08;97063.31;;;24.21;75.99
12759;BME280;20944;47.048;15.390;2022-08-19T10:31:37;97072.88;;;24.24;76.65
12759;BME280;20944;47.048;15.390;2022-08-19T10:34:28;97046.25;;;24.03;74.54
12759;BME280;20944;47.048;15.390;2022-08-19T10:36:57;97084.00;;;24.19;74.96
12759;BME280;20944;47.048;15.390;2022-08-19T10:39:28;97091.34;;;24.27;74.80
12759;BME280;20944;47.048;15.390;2022-08-19T10:42:08;97102.66;;;24.40;74.46
12759;BME280;20944;47.048;15.390;2022-08-19T10:44:37;97024.13;;;24.11;74.28
12759;BME280;20944;47.048;15.390;2022-08-19T10:47:07;97082.41;;;24.85;74.08
12759;BME280;20944;47.048;15.390;2022-08-19T10:49:53;97079.53;;;25.15;73.24
12759;BME280;20944;47.048;15.390;2022-08-19T10:52:39;97058.19;;;25.23;72.24
12759;BME280;20944;47.048;15.390;2022-08-19T10:55:17;97081.13;;;25.63;71.24
12759;BME280;20944;47.048;15.390;2022-08-19T10:58:03;97068.66;;;25.72;70.93
12759;BME280;20944;47.048;15.390;2022-08-19T11:00:36;97074.22;;;25.88;70.17
12759;BME280;20944;47.048;15.390;2022-08-19T11:03:06;97061.44;;;26.00;70.73
12759;BME280;20944;47.048;15.390;2022-08-19T11:05:35;97043.19;;;26.03;70.83
12759;BME280;20944;47.048;15.390;2022-08-19T11:08:06;97050.69;;;26.18;69.60
12759;BME280;20944;47.048;15.390;2022-08-19T11:10:48;97041.84;;;26.25;69.70
12759;BME280;20944;47.048;15.390;2022-08-19T11:13:16;97018.50;;;26.26;70.44
12759;BME280;20944;47.048;15.390;2022-08-19T11:15:45;97051.34;;;26.38;70.40
12759;BME280;20944;47.048;15.390;2022-08-19T11:18:15;97088.63;;;26.50;70.84
12759;BME280;20944;47.048;15.390;2022-08-19T11:20:44;97100.34;;;26.67;71.60
12759;BME280;20944;47.048;15.390;2022-08-19T11:23:12;97031.50;;;26.48;69.27
12759;BME280;20944;47.048;15.390;2022-08-19T11:25:40;97108.72;;;27.08;65.67
12759;BME280;20944;47.048;15.390;2022-08-19T11:28:09;97080.91;;;26.99;65.49
12759;BME280;20944;47.048;15.390;2022-08-19T11:30:37;97063.72;;;26.92;63.85
12759;BME280;20944;47.048;15.390;2022-08-19T11:33:05;97068.03;;;26.85;63.62
12759;BME280;20944;47.048;15.390;2022-08-19T11:35:38;97086.97;;;26.75;63.59
12759;BME280;20944;47.048;15.390;2022-08-19T11:38:07;97099.88;;;26.72;63.57
12759;BME280;20944;47.048;15.390;2022-08-19T11:40:35;97084.38;;;26.66;63.79
12759;BME280;20944;47.048;15.390;2022-08-19T11:43:03;97073.94;;;26.62;63.33
12759;BME280;20944;47.048;15.390;2022-08-19T11:45:32;97058.41;;;26.56;61.57
12759;BME280;20944;47.048;15.390;2022-08-19T11:48:01;97056.00;;;26.71;59.92
12759;BME280;20944;47.048;15.390;2022-08-19T11:50:30;97040.78;;;26.80;57.47
12759;BME280;20944;47.048;15.390;2022-08-19T11:52:59;97076.72;;;27.23;59.37
12759;BME280;20944;47.048;15.390;2022-08-19T11:55:28;97064.50;;;27.36;58.03
12759;BME280;20944;47.048;15.390;2022-08-19T11:57:56;97030.50;;;27.35;58.43
12759;BME280;20944;47.048;15.390;2022-08-19T12:00:24;97033.94;;;27.54;58.96
12759;BME280;20944;47.048;15.390;2022-08-19T12:02:53;97033.84;;;27.72;55.86
12759;BME280;20944;47.048;15.390;2022-08-19T12:05:21;97019.22;;;27.82;55.28
12759;BME280;20944;47.048;15.390;2022-08-19T12:07:49;97031.06;;;28.06;55.55
12759;BME280;20944;47.048;15.390;2022-08-19T12:10:19;97000.75;;;28.04;54.49
12759;BME280;20944;47.048;15.390;2022-08-19T12:12:52;97015.91;;;28.29;54.02
12759;BME280;20944;47.048;15.390;2022-08-19T12:15:25;97014.41;;;28.35;53.63
12759;BME280;20944;47.048;15.390;2022-08-19T12:18:03;96989.94;;;28.28;54.94
12759;BME280;20944;47.048;15.390;2022-08-19T12:20:34;96999.59;;;28.39;54.77
12759;BME280;20944;47.048;15.390;2022-08-19T12:23:03;96993.69;;;28.43;54.40
12759;BME280;20944;47.048;15.390;2022-08-19T12:25:33;97004.28;;;28.61;53.85
12759;BME280;20944;47.048;15.390;2022-08-19T12:28:02;96990.22;;;28.90;53.80
12759;BME280;20944;47.048;15.390;2022-08-19T12:30:31;96988.16;;;29.17;51.87
12759;BME280;20944;47.048;15.390;2022-08-19T12:32:59;96979.34;;;29.23;49.25
12759;BME280;20944;47.048;15.390;2022-08-19T12:35:27;96989.94;;;29.33;47.55
12759;BME280;20944;47.048;15.390;2022-08-19T12:37:57;96960.47;;;29.15;46.46
12759;BME280;20944;47.048;15.390;2022-08-19T12:40:26;96976.66;;;29.23;47.15
12759;BME280;20944;47.048;15.390;2022-08-19T12:42:55;96962.94;;;28.93;46.25
12759;BME280;20944;47.048;15.390;2022-08-19T12:45:25;96976.09;;;28.80;47.28
12759;BME280;20944;47.048;15.390;2022-08-19T12:47:53;96995.78;;;28.97;48.15
12759;BME280;20944;47.048;15.390;2022-08-19T12:50:22;96997.53;;;29.29;47.72
12759;BME280;20944;47.048;15.390;2022-08-19T12:52:50;96981.88;;;29.64;47.80
12759;BME280;20944;47.048;15.390;2022-08-19T12:55:19;97000.78;;;30.09;45.34
12759;BME280;20944;47.048;15.390;2022-08-19T12:57:47;96979.72;;;30.28;45.71
12759;BME280;20944;47.048;15.390;2022-08-19T13:00:19;97002.53;;;30.48;44.37
12759;BME280;20944;47.048;15.390;2022-08-19T13:02:50;96970.00;;;29.96;43.32
12759;BME280;20944;47.048;15.390;2022-08-19T13:05:20;96989.75;;;29.96;43.87
12759;BME280;20944;47.048;15.390;2022-08-19T13:07:50;96995.63;;;29.77;43.88
12759;BME280;20944;47.048;15.390;2022-08-19T13:10:23;97003.94;;;29.98;44.53
12759;BME280;20944;47.048;15.390;2022-08-19T13:12:51;96986.72;;;29.91;44.89
12759;BME280;20944;47.048;15.390;2022-08-19T13:15:23;96981.97;;;30.24;44.39